Time;durP1;ratioP1;P1;durP2;ratioP2;P2;SDS_P1;SDS_P2;PMS_P1;PMS_P2;Temp;Humidity;BMP_temperature;BMP_pressure;BME280_temperature;BME280_humidity;BME280_pressure;Samples;Min_cycle;Max_cycle;Signal;HPM_P1;HPM_P2
2022/08/23 00:00:04;;;;;;;4.30;2.53;;;;;;;12.26;100.00;95783.75;1042450;28;20036;-69
2022/08/23 00:00:35;;;;;;;3.75;2.50;;;;;;;12.25;100.00;95788.25;1039081;28;20026;-70
2022/08/23 00:01:09;;;;;;;6.28;2.40;;;;;;;12.26;100.00;95789.81;1042714;28;20711;-70
2022/08/23 00:01:42;;;;;;;2.30;2.10;;;;;;;12.26;100.00;95786.38;1041459;28;20039;-69
2022/08/23 00:02:12;;;;;;;4.57;2.58;;;;;;;12.25;100.00;95782.97;1035481;28;20026;-69
2022/08/23 00:02:43;;;;;;;12.90;2.75;;;;;;;12.25;100.00;95784.81;1042303;28;20345;-71
2022/08/23 00:03:13;;;;;;;4.20;2.47;;;;;;;12.24;100.00;95791.94;1042974;28;20040;-69
2022/08/23 00:03:44;;;;;;;6.75;2.58;;;;;;;12.23;100.00;95787.72;1042475;28;20479;-70
2022/08/23 00:04:17;;;;;;;7.03;2.60;;;;;;;12.24;100.00;95788.53;1042096;28;20759;-70
2022/08/23 00:04:47;;;;;;;2.17;1.98;;;;;;;12.20;100.00;95784.84;1034604;28;20037;-70
2022/08/23 00:05:19;;;;;;;3.55;2.47;;;;;;;12.23;100.00;95789.56;1034670;28;20026;-70
2022/08/23 00:05:49;;;;;;;2.85;2.10;;;;;;;12.18;100.00;95776.44;1044338;28;20131;-70
2022/08/23 00:06:21;;;;;;;2.33;1.95;;;;;;;12.24;100.00;95785.91;1042378;28;20658;-72
2022/08/23 00:06:52;;;;;;;3.90;1.95;;;;;;;12.18;100.00;95793.00;1042398;28;20108;-71
2022/08/23 00:07:23;;;;;;;5.80;2.58;;;;;;;12.23;100.00;95789.56;1030157;28;20431;-69
2022/08/23 00:07:54;;;;;;;15.30;3.08;;;;;;;12.24;100.00;95791.16;1029991;28;20038;-70
2022/08/23 00:08:24;;;;;;;4.97;2.33;;;;;;;12.22;100.00;95788.78;1034439;28;20033;-71
2022/08/23 00:08:55;;;;;;;6.53;2.70;;;;;;;12.17;100.00;95780.94;1038675;28;20021;-70
2022/08/23 00:09:25;;;;;;;6.45;2.33;;;;;;;12.15;100.00;95782.25;1042183;28;20024;-70
2022/08/23 00:09:56;;;;;;;7.28;2.60;;;;;;;12.20;100.00;95796.16;1038465;28;20021;-72
2022/08/23 00:10:26;;;;;;;13.48;2.63;;;;;;;12.18;100.00;95789.59;1038309;28;20084;-70
2022/08/23 00:10:57;;;;;;;4.53;2.55;;;;;;;12.17;100.00;95790.63;1034068;28;20026;-70
2022/08/23 00:11:31;;;;;;;2.85;2.38;;;;;;;12.13;100.00;95781.72;1029813;28;20031;-70
2022/08/23 00:12:05;;;;;;;10.32;2.50;;;;;;;12.16;100.00;95784.59;1043139;28;20013;-69
2022/08/23 00:12:35;;;;;;;6.07;2.90;;;;;;;12.12;100.00;95788.84;1045734;28;20458;-71
2022/08/23 00:13:06;;;;;;;6.60;2.20;;;;;;;12.12;100.00;95788.06;1043361;28;20025;-70
2022/08/23 00:13:36;;;;;;;7.65;3.08;;;;;;;12.08;100.00;95781.75;1037881;28;20026;-69
2022/08/23 00:14:10;;;;;;;7.03;2.60;;;;;;;12.08;100.00;95787.03;1034153;28;20056;-70
2022/08/23 00:14:45;;;;;;;4.85;2.42;;;;;;;12.01;100.00;95782.84;1030828;28;20021;-70
2022/08/23 00:15:17;;;;;;;3.95;2.28;;;;;;;12.07;100.00;95795.94;1035154;28;20033;-72
2022/08/23 00:15:47;;;;;;;5.00;2.92;;;;;;;12.05;100.00;95795.44;1034210;28;20022;-71
2022/08/23 00:16:18;;;;;;;3.47;2.47;;;;;;;12.04;100.00;95792.03;1030971;28;20293;-70
2022/08/23 00:16:48;;;;;;;5.97;2.20;;;;;;;12.00;100.00;95789.16;1042503;28;20365;-70
2022/08/23 00:17:19;;;;;;;3.35;2.33;;;;;;;11.99;100.00;95794.69;1038040;28;20029;-69
2022/08/23 00:17:49;;;;;;;3.63;2.28;;;;;;;11.98;100.00;95783.38;1046502;28;20137;-70
2022/08/23 00:18:21;;;;;;;2.70;2.30;;;;;;;11.96;100.00;95790.75;1046636;28;20071;-70
2022/08/23 00:18:52;;;;;;;4.60;2.40;;;;;;;11.93;100.00;95786.00;1038019;28;20041;-70
2022/08/23 00:19:22;;;;;;;9.52;3.13;;;;;;;11.95;100.00;95789.16;1036187;28;20026;-70
2022/08/23 00:19:53;;;;;;;14.90;3.13;;;;;;;11.95;100.00;95793.66;1046555;28;20044;-70
2022/08/23 00:20:23;;;;;;;3.90;2.30;;;;;;;11.87;100.00;95779.22;1038250;28;20080;-71
2022/08/23 00:20:54;;;;;;;5.43;2.70;;;;;;;11.95;100.00;95794.44;1034280;28;20030;-70
2022/08/23 00:21:24;;;;;;;3.50;2.50;;;;;;;11.94;100.00;95786.81;1037349;28;20022;-69
2022/08/23 00:21:55;;;;;;;8.25;2.97;;;;;;;11.89;100.00;95789.47;1034343;28;20033;-69
2022/08/23 00:22:25;;;;;;;10.48;2.83;;;;;;;11.90;100.00;95786.56;1042538;28;20126;-69
2022/08/23 00:22:56;;;;;;;10.15;2.80;;;;;;;11.87;100.00;95784.47;1045088;28;20111;-69
2022/08/23 00:23:27;;;;;;;4.72;2.50;;;;;;;11.90;100.00;95791.03;1042469;28;20107;-71
2022/08/23 00:23:57;;;;;;;6.32;2.72;;;;;;;11.90;100.00;95788.41;1042147;28;20017;-70
2022/08/23 00:24:28;;;;;;;8.18;2.80;;;;;;;11.90;100.00;95788.41;1042121;28;20048;-70
2022/08/23 00:24:58;;;;;;;13.82;2.58;;;;;;;11.89;100.00;95790.25;1038693;28;20088;-72
2022/08/23 00:25:29;;;;;;;19.45;3.53;;;;;;;11.90;100.00;95788.41;1042520;28;20045;-69
2022/08/23 00:26:02;;;;;;;4.97;2.50;;;;;;;11.88;100.00;95788.69;1050347;28;20024;-70
2022/08/23 00:26:54;;;;;;;5.03;3.13;;;;;;;11.89;100.00;95786.84;1047011;28;20039;-70
2022/08/23 00:27:25;;;;;;;11.50;3.15;;;;;;;11.85;100.00;95786.59;1042260;28;20248;-69
2022/08/23 00:27:56;;;;;;;4.68;2.63;;;;;;;11.85;100.00;95797.09;1042275;28;20623;-71
2022/08/23 00:28:26;;;;;;;12.45;2.88;;;;;;;11.87;100.00;95800.25;1042258;28;20301;-71
2022/08/23 00:28:57;;;;;;;6.53;2.65;;;;;;;11.83;100.00;95793.91;1042736;28;20032;-70
2022/08/23 00:29:36;;;;;;;5.72;2.58;;;;;;;11.80;100.00;95792.63;1050495;28;20032;-69
2022/08/23 00:30:08;;;;;;;6.53;2.90;;;;;;;11.79;100.00;95787.63;1049327;28;20032;-70
2022/08/23 00:30:38;;;;;;;3.22;2.35;;;;;;;11.78;100.00;95794.72;1043678;28;20278;-73
2022/08/23 00:31:09;;;;;;;4.80;2.50;;;;;;;11.77;100.00;95792.38;1041697;28;20317;-71
2022/08/23 00:31:39;;;;;;;4.40;2.80;;;;;;;11.77;100.00;95801.06;1034018;28;20077;-71
2022/08/23 00:32:11;;;;;;;5.35;2.88;;;;;;;11.76;100.00;95796.81;1034072;28;20030;-70
2022/08/23 00:32:42;;;;;;;9.30;2.70;;;;;;;11.75;100.00;95797.09;1030438;28;20034;-72
2022/08/23 00:33:13;;;;;;;2.90;2.42;;;;;;;11.74;100.00;95800.81;1035467;28;20275;-68
2022/08/23 00:33:44;;;;;;;3.22;2.80;;;;;;;11.75;100.00;95799.75;1042349;28;20259;-70
2022/08/23 00:34:14;;;;;;;3.53;2.58;;;;;;;11.74;100.00;95798.94;1038598;28;20041;-70
2022/08/23 00:34:45;;;;;;;3.65;2.78;;;;;;;11.75;100.00;95805.00;1038064;28;20032;-70
2022/08/23 00:35:16;;;;;;;4.28;2.55;;;;;;;11.72;100.00;95795.00;1034072;28;20028;-69
2022/08/23 00:35:47;;;;;;;4.50;2.78;;;;;;;11.71;100.00;95793.44;1042722;28;20021;-70
2022/08/23 00:36:17;;;;;;;4.53;2.90;;;;;;;11.70;100.00;95805.81;1041274;28;20252;-70
2022/08/23 00:36:49;;;;;;;7.00;2.72;;;;;;;11.67;100.00;95797.63;1038488;28;20029;-70
2022/08/23 00:37:19;;;;;;;4.65;2.85;;;;;;;11.70;100.00;95799.75;1031093;28;20863;-69
2022/08/23 00:37:50;;;;;;;7.38;3.03;;;;;;;11.65;100.00;95789.25;1035158;28;20022;-69
2022/08/23 00:38:21;;;;;;;6.95;2.97;;;;;;;11.71;100.00;95798.69;1042461;28;20025;-70
2022/08/23 00:38:51;;;;;;;7.13;2.60;;;;;;;11.71;100.00;95801.34;1043303;28;20059;-70
2022/08/23 00:39:22;;;;;;;8.25;2.83;;;;;;;11.68;100.00;95804.50;1039113;28;20053;-70
2022/08/23 00:39:52;;;;;;;15.30;3.30;;;;;;;11.70;100.00;95802.38;1047240;28;20100;-70
2022/08/23 00:40:23;;;;;;;4.32;2.88;;;;;;;11.72;100.00;95808.16;1042975;28;20029;-69
2022/08/23 00:40:53;;;;;;;3.35;2.67;;;;;;;11.71;100.00;95803.97;1043199;28;20029;-70
2022/08/23 00:41:24;;;;;;;2.75;2.38;;;;;;;11.70;100.00;95797.09;1039325;28;20030;-69
2022/08/23 00:41:59;;;;;;;3.33;2.75;;;;;;;11.71;100.00;95801.34;1043270;28;20021;-69
2022/08/23 00:47:39;;;;;;;4.55;2.42;;;;;;;11.70;100.00;95799.75;1046369;28;20286;-69
2022/08/23 00:48:09;;;;;;;5.57;2.85;;;;;;;11.67;100.00;95795.00;1043136;28;20028;-69
2022/08/23 00:48:40;;;;;;;3.38;2.50;;;;;;;11.60;100.00;95791.88;1035317;28;20293;-69
2022/08/23 00:49:11;;;;;;;2.38;2.17;;;;;;;11.64;100.00;95798.19;1042684;28;20973;-70
2022/08/23 00:49:42;;;;;;;4.15;2.83;;;;;;;11.64;100.00;95804.25;1035004;28;20033;-69
2022/08/23 00:50:22;;;;;;;3.70;2.78;;;;;;;11.64;100.00;95800.84;1034906;28;20265;-70
2022/08/23 00:51:07;;;;;;;4.53;2.55;;;;;;;11.54;100.00;95789.28;1037405;28;20256;-69
2022/08/23 00:51:43;;;;;;;2.90;2.58;;;;;;;11.62;100.00;95795.81;1038161;28;20268;-69
2022/08/23 00:52:28;;;;;;;4.80;2.63;;;;;;;11.61;100.00;95794.25;1038965;28;20263;-69
2022/08/23 00:53:11;;;;;;;6.30;2.95;;;;;;;11.57;100.00;95788.75;1030710;28;20313;-69
2022/08/23 00:53:45;;;;;;;3.10;2.80;;;;;;;11.62;100.00;95800.31;1034902;28;20285;-70
2022/08/23 00:54:16;;;;;;;3.50;2.85;;;;;;;11.60;100.00;95799.78;1039077;28;20739;-70
2022/08/23 00:54:46;;;;;;;4.10;2.80;;;;;;;11.59;100.00;95803.47;1028840;28;20277;-70
2022/08/23 00:55:17;;;;;;;5.75;2.70;;;;;;;11.54;100.00;95799.00;1031839;28;20026;-71
2022/08/23 00:55:50;;;;;;;5.85;2.83;;;;;;;11.55;100.00;95800.56;1034809;28;20033;-70
2022/08/23 00:56:21;;;;;;;8.73;3.10;;;;;;;11.48;100.00;95790.34;1039901;28;20025;-70
2022/08/23 00:56:53;;;;;;;4.25;2.70;;;;;;;11.51;100.00;95800.31;1038769;28;20271;-70
2022/08/23 00:57:24;;;;;;;4.97;2.78;;;;;;;11.51;100.00;95795.06;1040490;28;20368;-70
2022/08/23 00:57:57;;;;;;;4.82;2.80;;;;;;;11.52;100.00;95806.38;1031328;28;20269;-71
2022/08/23 00:58:28;;;;;;;3.85;3.05;;;;;;;11.53;100.00;95797.41;1035035;28;20606;-70
2022/08/23 00:58:58;;;;;;;4.53;2.60;;;;;;;11.54;100.00;95804.28;1037210;28;20332;-69
2022/08/23 00:59:29;;;;;;;5.90;2.85;;;;;;;11.53;100.00;95806.09;1039865;28;20022;-69
2022/08/23 00:59:59;;;;;;;5.72;2.55;;;;;;;11.55;100.00;95803.22;1046556;28;20032;-70
2022/08/23 01:00:31;;;;;;;4.10;3.17;;;;;;;11.55;100.00;95801.38;1043396;28;20427;-70
2022/08/23 01:01:02;;;;;;;3.17;2.38;;;;;;;11.56;100.00;95805.56;1042967;28;20033;-70
2022/08/23 01:01:32;;;;;;;3.78;2.70;;;;;;;11.56;100.00;95802.94;1038431;28;20282;-71
2022/08/23 01:02:03;;;;;;;7.70;3.13;;;;;;;11.59;100.00;95806.88;1043606;28;20025;-70
2022/08/23 01:02:34;;;;;;;3.83;2.67;;;;;;;11.56;100.00;95797.66;1046964;28;20577;-69
2022/08/23 01:03:06;;;;;;;3.78;2.60;;;;;;;11.60;100.00;95803.19;1039200;28;20294;-71
2022/08/23 01:03:38;;;;;;;2.97;2.00;;;;;;;11.61;100.00;95804.78;1035179;28;20396;-70
2022/08/23 01:04:10;;;;;;;3.47;2.78;;;;;;;11.61;100.00;95801.38;1038149;28;20280;-70
2022/08/23 01:04:43;;;;;;;4.25;2.50;;;;;;;11.60;100.00;95803.19;1043333;28;20291;-70
2022/08/23 01:05:14;;;;;;;4.82;2.83;;;;;;;11.60;100.00;95805.03;1038820;28;20314;-71
2022/08/23 01:05:51;;;;;;;2.88;2.60;;;;;;;11.63;100.00;95809.75;1040154;28;20330;-70
2022/08/23 01:06:31;;;;;;;5.88;2.90;;;;;;;11.65;100.00;95807.66;1036163;28;20073;-71
2022/08/23 01:07:06;;;;;;;4.93;2.65;;;;;;;11.65;100.00;95805.03;1043157;28;20291;-69
2022/08/23 01:07:50;;;;;;;4.32;2.40;;;;;;;11.64;100.00;95804.25;1041933;28;20029;-70
2022/08/23 01:08:22;;;;;;;4.25;3.08;;;;;;;11.66;100.00;95806.59;1041830;28;20271;-71
2022/08/23 01:08:56;;;;;;;2.70;2.45;;;;;;;11.65;100.00;95807.66;1035353;28;20275;-69
2022/08/23 01:09:26;;;;;;;5.57;3.03;;;;;;;11.65;100.00;95805.81;1041992;28;20971;-70
2022/08/23 01:10:00;;;;;;;3.42;2.60;;;;;;;11.64;100.00;95801.63;1039380;28;20286;-70
2022/08/23 01:10:40;;;;;;;2.70;2.42;;;;;;;11.63;100.00;95801.88;1030716;28;20069;-70
2022/08/23 01:11:32;;;;;;;5.20;2.55;;;;;;;11.63;100.00;95801.88;1034211;28;20300;-70
2022/08/23 01:12:06;;;;;;;5.43;2.63;;;;;;;11.60;100.00;95803.19;1030712;28;20646;-70
2022/08/23 01:12:40;;;;;;;4.32;2.58;;;;;;;11.62;100.00;95800.31;1038885;28;20271;-70
2022/08/23 01:13:17;;;;;;;3.88;2.35;;;;;;;11.61;100.00;95801.38;1046885;28;20270;-69
2022/08/23 01:13:52;;;;;;;6.00;2.75;;;;;;;11.63;100.00;95807.91;1040691;28;20272;-70
2022/08/23 01:14:44;;;;;;;3.75;2.65;;;;;;;11.63;100.00;95804.50;1043364;28;20284;-70
2022/08/23 01:15:19;;;;;;;5.22;2.50;;;;;;;11.58;100.00;95794.78;1038909;28;20283;-70
2022/08/23 01:16:00;;;;;;;2.90;2.70;;;;;;;11.61;100.00;95798.75;1027519;28;20257;-70
2022/08/23 01:16:44;;;;;;;4.05;3.10;;;;;;;11.57;100.00;95795.84;1042898;28;20263;-70
2022/08/23 01:17:26;;;;;;;4.88;2.92;;;;;;;11.62;100.00;95806.34;1042930;28;20032;-70
2022/08/23 01:18:06;;;;;;;4.90;3.33;;;;;;;11.57;100.00;95801.91;1034009;28;20742;-71
2022/08/23 01:18:37;;;;;;;5.30;3.05;;;;;;;11.54;100.00;95797.16;1034868;28;20284;-70
2022/08/23 01:19:34;;;;;;;3.65;3.00;;;;;;;11.54;100.00;95799.78;1034759;28;20047;-67
2022/08/23 01:20:10;;;;;;;5.43;2.83;;;;;;;11.61;100.00;95811.88;1030569;28;20034;-70
2022/08/23 01:20:48;;;;;;;5.38;2.90;;;;;;;11.59;100.00;95803.47;1035134;28;20277;-71
2022/08/23 01:21:30;;;;;;;4.00;3.00;;;;;;;11.59;100.00;95811.34;1037503;28;20275;-69
2022/08/23 01:22:23;;;;;;;5.18;2.78;;;;;;;11.56;100.00;95808.19;1030702;28;20755;-70
2022/08/23 01:22:58;;;;;;;3.63;2.90;;;;;;;11.51;100.00;95804.81;1035759;28;20261;-71
2022/08/23 01:23:44;;;;;;;4.10;2.67;;;;;;;11.56;100.00;95813.44;1038748;28;20256;-70
2022/08/23 01:24:15;;;;;;;4.55;2.97;;;;;;;11.49;100.00;95804.28;1038680;28;20260;-70
2022/08/23 01:24:45;;;;;;;6.05;3.00;;;;;;;11.55;100.00;95811.88;1038690;28;20264;-69
2022/08/23 01:25:18;;;;;;;3.25;2.88;;;;;;;11.57;100.00;95815.03;1039021;28;20260;-70
2022/08/23 01:25:48;;;;;;;4.43;2.72;;;;;;;11.52;100.00;95806.38;1031213;28;20045;-70
2022/08/23 01:26:20;;;;;;;3.70;2.58;;;;;;;11.51;100.00;95800.31;1030931;28;20289;-69
2022/08/23 01:26:50;;;;;;;4.97;3.10;;;;;;;11.56;100.00;95805.56;1039416;28;20021;-70
2022/08/23 01:27:21;;;;;;;4.78;2.72;;;;;;;11.51;100.00;95800.31;1034961;28;20316;-69
2022/08/23 01:27:51;;;;;;;4.13;3.00;;;;;;;11.56;100.00;95808.19;1032127;28;20056;-70
2022/08/23 01:28:22;;;;;;;5.25;2.90;;;;;;;11.57;100.00;95814.25;1034657;28;20109;-69
2022/08/23 01:28:53;;;;;;;3.55;2.80;;;;;;;11.51;100.00;95802.94;1030892;28;20023;-69
2022/08/23 01:29:23;;;;;;;3.35;2.60;;;;;;;11.55;100.00;95808.47;1030872;28;20077;-70
2022/08/23 01:29:54;;;;;;;3.67;2.67;;;;;;;11.54;100.00;95810.31;1042944;28;20051;-71
2022/08/23 01:30:26;;;;;;;3.05;2.75;;;;;;;11.50;100.00;95809.28;1034768;28;20057;-71
2022/08/23 01:30:57;;;;;;;2.67;2.47;;;;;;;11.47;100.00;95799.28;1042994;28;20064;-71
2022/08/23 01:31:27;;;;;;;2.83;2.55;;;;;;;11.53;100.00;95808.72;1040992;28;20369;-71
2022/08/23 01:31:59;;;;;;;2.92;2.67;;;;;;;11.52;100.00;95811.63;1034878;28;20137;-71
2022/08/23 01:32:31;;;;;;;4.40;2.85;;;;;;;11.52;100.00;95814.25;1030440;28;20022;-71
2022/08/23 01:33:03;;;;;;;4.40;2.63;;;;;;;11.51;100.00;95816.09;1036800;28;20269;-71
2022/08/23 01:33:35;;;;;;;4.15;2.80;;;;;;;11.46;100.00;95804.78;1038985;28;20260;-71
2022/08/23 01:34:07;;;;;;;3.20;2.72;;;;;;;11.45;100.00;95804.00;1035154;28;20322;-70
2022/08/23 01:34:38;;;;;;;3.22;2.78;;;;;;;11.44;100.00;95809.53;1035416;28;20277;-71
2022/08/23 01:35:08;;;;;;;3.25;2.58;;;;;;;11.51;100.00;95816.09;1038729;28;20661;-72
2022/08/23 01:35:41;;;;;;;4.28;2.45;;;;;;;11.48;100.00;95816.63;1031058;28;20027;-71
2022/08/23 01:36:13;;;;;;;5.38;2.75;;;;;;;11.47;100.00;95809.03;1034649;28;20029;-70
2022/08/23 01:36:47;;;;;;;4.47;3.03;;;;;;;11.49;100.00;95818.19;1030516;28;20265;-71
2022/08/23 01:37:20;;;;;;;3.47;2.90;;;;;;;11.46;100.00;95815.31;1030132;28;20278;-71
2022/08/23 01:37:51;;;;;;;4.85;2.75;;;;;;;11.48;100.00;95819.25;1038701;28;20795;-71
2022/08/23 01:38:22;;;;;;;4.07;2.97;;;;;;;11.46;100.00;95816.09;1038332;28;20304;-70
2022/08/23 01:38:52;;;;;;;3.47;3.10;;;;;;;11.47;100.00;95819.53;1042844;28;20021;-70
2022/08/23 01:39:23;;;;;;;5.10;2.88;;;;;;;11.46;100.00;95813.47;1034720;28;20988;-70
2022/08/23 01:39:54;;;;;;;3.97;2.97;;;;;;;11.46;100.00;95818.72;1039078;28;20539;-70
2022/08/23 01:40:24;;;;;;;4.40;2.60;;;;;;;11.47;100.00;95820.31;1042965;28;20024;-71
2022/08/23 01:40:55;;;;;;;3.30;2.50;;;;;;;11.47;100.00;95820.31;1046819;28;20029;-70
2022/08/23 01:41:25;;;;;;;2.78;2.53;;;;;;;11.47;100.00;95822.16;1046356;28;20067;-70
2022/08/23 01:41:56;;;;;;;3.45;3.15;;;;;;;11.47;100.00;95820.31;1047156;28;20047;-70
2022/08/23 01:42:27;;;;;;;3.97;2.97;;;;;;;11.46;100.00;95821.34;1051215;28;20032;-71
2022/08/23 01:42:58;;;;;;;3.72;2.40;;;;;;;11.42;100.00;95816.91;1042930;28;20144;-70
2022/08/23 01:43:29;;;;;;;3.35;2.47;;;;;;;11.46;100.00;95828.44;1038657;28;20278;-70
2022/08/23 01:43:59;;;;;;;3.13;2.80;;;;;;;11.46;100.00;95818.72;1034861;28;20036;-70
2022/08/23 01:44:30;;;;;;;2.72;2.40;;;;;;;11.47;100.00;95828.19;1030645;28;20472;-72
2022/08/23 01:45:01;;;;;;;3.50;2.60;;;;;;;11.45;100.00;95824.25;1026648;28;20049;-71
2022/08/23 01:45:31;;;;;;;3.38;2.90;;;;;;;11.47;100.00;95824.78;1038915;28;20028;-71
2022/08/23 01:46:10;;;;;;;4.60;2.72;;;;;;;11.40;100.00;95811.91;1039002;28;20071;-70
2022/08/23 01:46:44;;;;;;;3.17;2.53;;;;;;;11.47;100.00;95822.94;1046995;28;20088;-70
2022/08/23 01:47:14;;;;;;;5.90;2.92;;;;;;;11.39;100.00;95812.16;1047043;28;20266;-72
2022/08/23 01:47:48;;;;;;;4.53;2.80;;;;;;;11.42;100.00;95817.69;1041305;28;20274;-70
2022/08/23 01:48:18;;;;;;;3.30;3.00;;;;;;;11.45;100.00;95826.88;1042796;28;20036;-70
2022/08/23 01:48:50;;;;;;;3.35;2.50;;;;;;;11.45;100.00;95825.03;1044726;28;20351;-70
2022/08/23 01:49:20;;;;;;;3.53;2.80;;;;;;;11.45;100.00;95819.00;1038258;28;20049;-70
2022/08/23 01:49:51;;;;;;;3.13;2.83;;;;;;;11.45;100.00;95817.16;1038594;28;20286;-71
2022/08/23 01:50:21;;;;;;;3.45;3.13;;;;;;;11.46;100.00;95821.34;1034375;28;20143;-72
2022/08/23 01:50:52;;;;;;;4.85;3.08;;;;;;;11.46;100.00;95818.72;1034633;28;20030;-71
2022/08/23 01:51:22;;;;;;;3.58;2.78;;;;;;;11.44;100.00;95812.19;1038032;28;20831;-71
2022/08/23 01:51:54;;;;;;;3.45;2.85;;;;;;;11.45;100.00;95819.78;1042712;28;20033;-70
2022/08/23 01:52:24;;;;;;;4.00;3.00;;;;;;;11.45;100.00;95819.78;1042572;28;20025;-71
2022/08/23 01:52:55;;;;;;;4.20;2.60;;;;;;;11.44;100.00;95820.84;1038958;28;20315;-70
2022/08/23 01:53:25;;;;;;;4.75;2.47;;;;;;;11.44;100.00;95820.84;1047066;28;20102;-71
2022/08/23 01:53:56;;;;;;;2.70;2.40;;;;;;;11.45;100.00;95824.25;1046897;28;20031;-71
2022/08/23 01:54:26;;;;;;;5.53;2.97;;;;;;;11.44;100.00;95820.06;1038912;28;20049;-71
2022/08/23 01:54:58;;;;;;;4.45;2.70;;;;;;;11.44;100.00;95820.06;1034583;28;20068;-72
2022/08/23 01:55:28;;;;;;;2.67;2.42;;;;;;;11.45;100.00;95826.88;1030403;28;20026;-70
2022/08/23 01:56:00;;;;;;;3.58;2.55;;;;;;;11.44;100.00;95820.06;1031119;28;20396;-71
2022/08/23 01:56:31;;;;;;;5.93;3.08;;;;;;;11.43;100.00;95811.38;1039160;28;20013;-71
2022/08/23 01:57:01;;;;;;;3.03;2.70;;;;;;;11.45;100.00;95821.63;1042916;28;20310;-70
2022/08/23 01:57:32;;;;;;;3.95;3.03;;;;;;;11.44;100.00;95817.44;1038429;28;20140;-69
2022/08/23 01:58:03;;;;;;;4.70;2.90;;;;;;;11.37;100.00;95804.56;1038659;28;20075;-70
2022/08/23 01:58:33;;;;;;;4.70;3.05;;;;;;;11.40;100.00;95819.00;1038570;28;20084;-71
2022/08/23 01:59:04;;;;;;;7.10;3.00;;;;;;;11.40;100.00;95824.25;1034708;28;20430;-71
2022/08/23 01:59:34;;;;;;;4.38;3.17;;;;;;;11.37;100.00;95819.50;1034522;28;20077;-70
2022/08/23 02:00:06;;;;;;;5.00;3.05;;;;;;;11.36;100.00;95824.00;1034834;28;20025;-71
2022/08/23 02:00:38;;;;;;;5.50;3.00;;;;;;;11.29;100.00;95816.38;1035813;28;20125;-71
2022/08/23 02:01:09;;;;;;;5.22;2.95;;;;;;;11.28;100.00;95822.69;1030643;28;20742;-71
2022/08/23 02:01:40;;;;;;;3.08;2.78;;;;;;;11.29;100.00;95820.84;1030389;28;20273;-70
2022/08/23 02:02:10;;;;;;;2.97;2.53;;;;;;;11.28;100.00;95827.16;1031119;28;20073;-70
2022/08/23 02:02:41;;;;;;;4.97;3.03;;;;;;;11.29;100.00;95823.47;1035072;28;20117;-71
2022/08/23 02:03:12;;;;;;;3.13;2.83;;;;;;;11.30;100.00;95814.53;1042987;28;20047;-70
2022/08/23 02:03:43;;;;;;;3.03;2.65;;;;;;;11.30;100.00;95814.53;1042781;28;20025;-70
2022/08/23 02:04:13;;;;;;;5.40;3.30;;;;;;;11.31;100.00;95826.63;1045790;28;20997;-70
2022/08/23 02:04:44;;;;;;;5.88;3.10;;;;;;;11.33;100.00;95819.25;1042678;28;20272;-71
2022/08/23 02:05:15;;;;;;;3.00;2.78;;;;;;;11.33;100.00;95819.25;1038959;28;20056;-70
2022/08/23 02:05:45;;;;;;;4.00;2.92;;;;;;;11.32;100.00;95821.09;1034371;28;20030;-71
2022/08/23 02:06:16;;;;;;;4.15;3.15;;;;;;;11.31;100.00;95819.53;1038693;28;20136;-71
2022/08/23 02:06:46;;;;;;;6.97;3.47;;;;;;;11.28;100.00;95816.66;1037161;28;20029;-70
2022/08/23 02:07:17;;;;;;;3.10;2.75;;;;;;;11.31;100.00;95829.25;1030481;28;20038;-71
2022/08/23 02:07:47;;;;;;;8.23;3.25;;;;;;;11.31;100.00;95826.63;1034409;28;20121;-71
2022/08/23 02:09:07;;;;;;;5.80;3.03;;;;;;;11.24;100.00;95824.28;1043907;28;20045;-71
2022/08/23 02:09:37;;;;;;;3.40;2.78;;;;;;;11.19;100.00;95824.28;1037065;28;20382;-71
2022/08/23 02:10:09;;;;;;;3.72;3.25;;;;;;;11.23;100.00;95829.78;1038589;28;20121;-71
2022/08/23 02:10:43;;;;;;;4.20;2.95;;;;;;;11.21;100.00;95831.91;1038622;28;20029;-70
2022/08/23 02:11:16;;;;;;;3.42;2.88;;;;;;;11.18;100.00;95832.44;1039574;28;20048;-69
2022/08/23 02:11:46;;;;;;;3.47;2.72;;;;;;;11.18;100.00;95830.59;1035574;28;20961;-70
2022/08/23 02:12:17;;;;;;;3.70;2.80;;;;;;;11.20;100.00;95833.75;1039383;28;20272;-70
2022/08/23 02:12:47;;;;;;;5.35;2.83;;;;;;;11.20;100.00;95833.75;1042672;28;20028;-70
2022/08/23 02:13:18;;;;;;;3.50;3.08;;;;;;;11.20;100.00;95835.56;1043188;28;20013;-71
2022/08/23 02:13:49;;;;;;;4.85;3.20;;;;;;;11.15;100.00;95822.44;1051089;28;20020;-71
2022/08/23 02:14:20;;;;;;;5.07;3.30;;;;;;;11.15;100.00;95833.72;1042457;28;20017;-71
2022/08/23 02:14:50;;;;;;;4.00;3.28;;;;;;;11.16;100.00;95837.16;1038719;28;20296;-70
2022/08/23 02:15:20;;;;;;;4.68;3.47;;;;;;;11.13;100.00;95838.44;1034628;28;20153;-71
2022/08/23 02:15:51;;;;;;;5.97;3.05;;;;;;;11.09;100.00;95827.69;1030296;28;20077;-70
2022/08/23 02:16:28;;;;;;;5.68;3.20;;;;;;;10.99;100.00;95822.44;1034497;28;20042;-71
2022/08/23 02:17:01;;;;;;;5.57;3.90;;;;;;;11.04;100.00;95838.19;1034653;28;20028;-70
2022/08/23 02:17:32;;;;;;;5.50;3.38;;;;;;;11.02;100.00;95834.25;1035706;28;20311;-71
2022/08/23 02:18:02;;;;;;;11.57;3.17;;;;;;;11.02;100.00;95834.25;1034346;28;20030;-70
2022/08/23 02:18:33;;;;;;;10.52;3.53;;;;;;;10.99;100.00;95832.94;1035376;28;20037;-70
2022/08/23 02:19:06;;;;;;;7.65;3.78;;;;;;;11.00;100.00;95836.34;1038871;28;20020;-71
2022/08/23 02:19:37;;;;;;;3.33;3.03;;;;;;;10.96;100.00;95836.09;1043523;28;20029;-71
2022/08/23 02:20:07;;;;;;;3.92;3.13;;;;;;;10.84;100.00;95822.44;1046921;28;20369;-70
2022/08/23 02:20:45;;;;;;;4.10;3.00;;;;;;;10.96;100.00;95840.56;1042763;28;20036;-71
2022/08/23 02:21:16;;;;;;;6.60;3.15;;;;;;;10.91;100.00;95833.47;1041967;28;20025;-71
2022/08/23 02:21:46;;;;;;;7.47;3.00;;;;;;;10.95;100.00;95842.38;1042749;28;20370;-71
2022/08/23 02:22:17;;;;;;;4.70;3.75;;;;;;;10.94;100.00;95837.41;1040862;28;21059;-71
2022/08/23 02:22:47;;;;;;;6.55;3.60;;;;;;;10.94;100.00;95842.66;1046342;28;20523;-72
2022/08/23 02:23:19;;;;;;;7.00;3.38;;;;;;;10.88;100.00;95834.00;1043035;28;20021;-72
2022/08/23 02:23:52;;;;;;;8.30;3.75;;;;;;;10.92;100.00;95845.53;1034728;28;20064;-70
2022/08/23 02:24:23;;;;;;;6.25;3.70;;;;;;;10.92;100.00;95842.91;1030177;28;20355;-70
2022/08/23 02:24:54;;;;;;;5.28;3.20;;;;;;;10.91;100.00;95838.72;1030609;28;20348;-71
2022/08/23 02:25:25;;;;;;;3.67;3.38;;;;;;;10.90;100.00;95839.78;1031164;28;20273;-70
2022/08/23 02:25:55;;;;;;;9.05;3.65;;;;;;;10.90;100.00;95841.59;1039305;28;20036;-70
2022/08/23 02:26:26;;;;;;;3.35;2.97;;;;;;;10.85;100.00;95834.50;1034657;28;20034;-71
2022/08/23 02:26:58;;;;;;;4.18;3.28;;;;;;;10.88;100.00;95843.72;1042843;28;20025;-71
2022/08/23 02:27:31;;;;;;;7.80;3.63;;;;;;;10.88;100.00;95841.88;1030547;28;20433;-70
2022/08/23 02:28:03;;;;;;;3.38;3.00;;;;;;;10.80;100.00;95827.44;1035098;28;20330;-70
2022/08/23 02:28:33;;;;;;;4.68;3.30;;;;;;;10.86;100.00;95838.69;1042583;28;20520;-70
2022/08/23 02:29:07;;;;;;;6.28;3.00;;;;;;;10.84;100.00;95843.44;1042872;28;20294;-71
2022/08/23 02:29:37;;;;;;;6.32;3.35;;;;;;;10.86;100.00;95841.31;1042614;28;20019;-70
2022/08/23 02:30:14;;;;;;;4.32;3.67;;;;;;;10.82;100.00;95840.28;1034417;28;20725;-69
2022/08/23 02:30:44;;;;;;;3.50;3.17;;;;;;;10.78;100.00;95834.78;1039184;28;20252;-71
2022/08/23 02:31:15;;;;;;;6.78;3.35;;;;;;;10.82;100.00;95842.91;1041238;28;20259;-68
2022/08/23 02:31:46;;;;;;;10.07;3.42;;;;;;;10.80;100.00;95842.41;1043440;28;20052;-67
2022/08/23 02:32:17;;;;;;;11.32;3.85;;;;;;;10.79;100.00;95841.59;1043965;28;20100;-71
2022/08/23 02:32:47;;;;;;;11.85;3.60;;;;;;;10.78;100.00;95845.25;1042981;28;20012;-73
2022/08/23 02:33:17;;;;;;;5.20;3.50;;;;;;;10.77;100.00;95841.06;1039424;28;20017;-70
2022/08/23 02:33:48;;;;;;;8.02;3.38;;;;;;;10.74;100.00;95838.97;1039576;28;20380;-71
2022/08/23 02:34:18;;;;;;;12.15;3.50;;;;;;;10.80;100.00;95842.41;1047497;28;20383;-70
2022/08/23 02:34:49;;;;;;;8.15;4.07;;;;;;;10.77;100.00;95841.06;1043119;28;20021;-70
2022/08/23 02:35:20;;;;;;;12.32;4.03;;;;;;;10.77;100.00;95841.06;1043363;28;20099;-69
2022/08/23 02:35:50;;;;;;;5.03;3.33;;;;;;;10.74;100.00;95843.44;1039348;28;20025;-71